createdAt,value
2023-02-08T00:04:02.936Z,15.65
2023-02-08T00:06:30.187Z,16.23
2023-02-08T00:08:57.414Z,16.08
2023-02-08T00:11:24.669Z,16.27
2023-02-08T00:13:55.643Z,16.92
2023-02-08T00:16:24.114Z,16.17
2023-02-08T00:19:33.462Z,15.35
2023-02-08T00:22:36.187Z,15.35
2023-02-08T00:25:25.086Z,14.77
2023-02-08T00:31:02.254Z,15.77
2023-02-08T00:33:29.469Z,15.40
2023-02-08T00:36:29.560Z,16.02
2023-02-08T00:38:57.007Z,14.93
2023-02-08T00:41:24.945Z,14.75
2023-02-08T00:44:55.111Z,15.73
2023-02-08T00:47:23.788Z,15.13
2023-02-08T00:51:19.922Z,15.80
2023-02-08T00:53:49.851Z,13.80
2023-02-08T00:56:16.859Z,16.50
2023-02-08T00:58:45.545Z,15.68
2023-02-08T01:01:46.881Z,14.85
2023-02-08T01:04:17.967Z,15.77
2023-02-08T01:06:47.426Z,12.93
2023-02-08T01:09:14.505Z,15.68
2023-02-08T01:12:09.914Z,15.98
2023-02-08T01:14:41.043Z,15.65
2023-02-08T01:17:08.652Z,16.70
2023-02-08T01:19:44.381Z,16.85
2023-02-08T01:22:11.408Z,15.35
2023-02-08T01:24:38.372Z,16.88
2023-02-08T01:27:05.710Z,16.42
2023-02-08T01:29:32.699Z,15.93
2023-02-08T01:32:00.605Z,15.85
2023-02-08T01:34:29.864Z,16.35
2023-02-08T01:36:57.056Z,17.33
2023-02-08T01:39:24.135Z,16.08
2023-02-08T01:41:51.957Z,17.95
2023-02-08T01:44:18.762Z,17.48
2023-02-08T01:46:51.364Z,17.42
2023-02-08T01:49:42.507Z,15.95
2023-02-08T01:52:28.943Z,18.13
2023-02-08T01:55:08.920Z,18.13
2023-02-08T01:57:35.956Z,17.63
2023-02-08T02:00:18.710Z,16.60
2023-02-08T02:02:47.997Z,18.30
2023-02-08T02:05:17.546Z,15.38
2023-02-08T02:07:47.333Z,15.43
2023-02-08T02:10:32.472Z,16.95
2023-02-08T02:13:09.910Z,15.90
2023-02-08T02:15:37.267Z,16.10
2023-02-08T02:18:07.548Z,16.73
2023-02-08T02:57:05.906Z,17.55
2023-02-08T03:37:11.588Z,15.10
2023-02-08T03:39:43.681Z,15.35
2023-02-08T07:51:16.668Z,13.75
2023-02-08T07:53:43.872Z,15.52
2023-02-08T07:56:10.923Z,14.82
2023-02-08T07:58:40.546Z,14.52
2023-02-08T08:01:21.511Z,14.52
2023-02-08T08:03:53.593Z,14.00
2023-02-08T08:06:24.155Z,13.93
2023-02-08T08:08:52.338Z,12.18
2023-02-08T08:11:20.483Z,13.73
2023-02-08T08:13:47.921Z,13.52
2023-02-08T08:16:15.584Z,13.52
2023-02-08T08:18:43.516Z,13.38
2023-02-08T08:21:12.038Z,13.00
2023-02-08T08:23:40.128Z,13.55
2023-02-08T08:26:14.266Z,12.50
2023-02-08T08:28:43.751Z,11.45
2023-02-08T08:31:17.394Z,10.65
2023-02-08T08:33:45.678Z,11.82
2023-02-08T08:36:15.255Z,12.07
2023-02-08T08:38:42.432Z,11.80
2023-02-08T08:41:11.989Z,11.77
2023-02-08T08:43:39.367Z,12.18
2023-02-08T08:46:08.352Z,12.13
2023-02-08T08:48:36.634Z,11.88
2023-02-08T08:51:03.733Z,13.75
2023-02-08T08:53:30.957Z,12.77
2023-02-08T08:55:59.199Z,12.27
2023-02-08T08:58:27.160Z,12.93
2023-02-08T09:00:56.243Z,12.13
2023-02-08T09:03:23.537Z,12.27
2023-02-08T09:05:51.561Z,11.75
2023-02-08T09:08:20.449Z,12.13
2023-02-08T09:10:47.503Z,11.80
2023-02-08T09:13:19.951Z,12.30
2023-02-08T09:15:47.945Z,13.15
2023-02-08T09:18:15.816Z,11.00
2023-02-08T09:20:43.812Z,11.55
2023-02-08T09:23:11.338Z,15.18
2023-02-08T09:25:39.175Z,13.90
2023-02-08T09:28:08.235Z,11.60
2023-02-08T09:30:35.609Z,15.02
2023-02-08T09:33:04.819Z,17.48
2023-02-08T09:35:33.025Z,13.13
2023-02-08T09:38:02.697Z,12.65
2023-02-08T09:40:54.868Z,10.98
2023-02-08T09:43:49.516Z,9.10
2023-02-08T10:01:39.700Z,7.47
2023-02-08T10:04:18.601Z,6.72
2023-02-08T10:06:47.655Z,6.72
2023-02-08T10:09:19.079Z,5.50
2023-02-08T10:12:00.625Z,5.20
2023-02-08T10:14:27.598Z,5.78
2023-02-08T10:16:57.365Z,4.97
2023-02-08T10:20:02.771Z,5.43
2023-02-08T10:22:35.836Z,4.93
2023-02-08T10:25:29.186Z,5.13
2023-02-08T10:28:16.293Z,4.45
2023-02-08T10:30:47.814Z,4.15
2023-02-08T10:33:26.547Z,2.97
2023-02-08T10:35:55.012Z,3.00
2023-02-08T10:38:37.157Z,3.10
2023-02-08T10:41:19.620Z,3.25
2023-02-08T10:43:54.845Z,3.30
2023-02-08T10:46:32.784Z,3.95
2023-02-08T10:49:05.698Z,4.30
2023-02-08T10:51:32.782Z,4.32
2023-02-08T10:54:00.178Z,3.92
2023-02-08T10:56:39.940Z,3.75
2023-02-08T10:59:36.125Z,3.72
2023-02-08T11:02:18.757Z,3.97
2023-02-08T11:05:07.870Z,3.33
2023-02-08T11:07:36.773Z,4.10
2023-02-08T11:10:19.337Z,2.92
2023-02-08T11:15:34.474Z,3.60
2023-02-08T11:18:02.837Z,3.40
2023-02-08T11:20:37.631Z,3.55
2023-02-08T11:23:41.673Z,3.53
2023-02-08T11:26:33.789Z,3.30
2023-02-08T11:29:17.352Z,3.33
2023-02-08T11:32:15.940Z,3.70
2023-02-08T11:34:43.163Z,3.65
2023-02-08T11:37:26.075Z,3.90
2023-02-08T11:39:58.732Z,3.97
2023-02-08T11:42:29.098Z,3.30
2023-02-08T11:44:58.295Z,3.72
2023-02-08T11:47:28.303Z,3.75
2023-02-08T11:49:58.197Z,3.80
2023-02-08T11:52:32.019Z,4.03
2023-02-08T11:55:35.644Z,3.72
2023-02-08T11:58:12.401Z,3.75
2023-02-08T12:00:41.095Z,4.38
2023-02-08T12:03:31.292Z,4.20
2023-02-08T12:06:52.015Z,4.35
2023-02-08T12:09:38.254Z,4.22
2023-02-08T12:12:36.333Z,3.95
2023-02-08T12:15:11.400Z,4.38
2023-02-08T12:17:47.598Z,3.88
2023-02-08T12:20:37.301Z,3.90
2023-02-08T12:23:19.157Z,3.83
2023-02-08T12:26:09.637Z,3.60
2023-02-08T12:29:20.995Z,3.45
2023-02-08T12:31:56.522Z,3.35
2023-02-08T12:34:39.838Z,3.65
2023-02-08T12:37:35.112Z,3.47
2023-02-08T12:40:38.959Z,3.40
2023-02-08T12:43:24.080Z,3.50
2023-02-08T12:45:54.265Z,3.47
2023-02-08T12:48:54.085Z,3.47
2023-02-08T12:51:30.376Z,3.13
2023-02-08T12:54:04.993Z,3.05
2023-02-08T12:56:39.930Z,3.38
2023-02-08T12:59:14.086Z,2.85
2023-02-08T13:01:46.290Z,3.47
2023-02-08T13:04:38.924Z,3.30
2023-02-08T13:10:02.511Z,2.35
2023-02-08T13:12:53.515Z,2.97
2023-02-08T13:15:30.946Z,2.70
2023-02-08T13:18:02.815Z,2.78
2023-02-08T13:20:35.693Z,2.42
2023-02-08T13:23:25.445Z,2.95
2023-02-08T13:25:57.126Z,2.63
2023-02-08T13:28:26.036Z,3.15
2023-02-08T13:31:12.772Z,2.92
2023-02-08T13:34:11.429Z,2.78
2023-02-08T13:36:42.476Z,2.90
2023-02-08T13:39:31.507Z,2.67
2023-02-08T13:41:59.394Z,2.58
2023-02-08T13:44:38.627Z,3.40
2023-02-08T13:47:07.235Z,2.85
2023-02-08T13:49:51.135Z,2.83
2023-02-08T13:52:46.550Z,2.95
2023-02-08T13:55:33.442Z,2.78
2023-02-08T13:58:27.954Z,3.00
2023-02-08T14:00:57.945Z,2.47
2023-02-08T14:03:33.720Z,3.15
2023-02-08T14:06:06.997Z,3.53
2023-02-08T14:08:40.387Z,3.33
2023-02-08T14:11:12.791Z,3.28
2023-02-08T14:14:06.332Z,2.95
2023-02-08T14:16:39.896Z,2.50
2023-02-08T14:19:23.051Z,2.60
2023-02-08T14:22:02.476Z,3.22
2023-02-08T14:24:39.985Z,2.13
2023-02-08T14:27:11.504Z,2.95
2023-02-08T14:29:38.641Z,2.88
2023-02-08T14:32:05.878Z,3.03
2023-02-08T14:34:39.675Z,2.90
2023-02-08T14:37:26.681Z,3.00
2023-02-08T14:40:21.822Z,3.03
2023-02-08T14:42:55.999Z,3.00
2023-02-08T14:45:33.519Z,2.70
2023-02-08T14:48:26.644Z,3.00
2023-02-08T14:51:14.527Z,2.85
2023-02-08T14:53:55.481Z,2.80
2023-02-08T14:56:29.566Z,3.25
2023-02-08T14:59:01.158Z,3.50
2023-02-08T15:01:28.429Z,3.72
2023-02-08T15:04:00.590Z,2.78
2023-02-08T15:06:39.195Z,3.45
2023-02-08T15:09:21.933Z,3.80
2023-02-08T15:14:21.052Z,3.90
2023-02-08T15:16:49.347Z,3.97
2023-02-08T15:19:27.176Z,3.50
2023-02-08T15:21:54.778Z,3.83
2023-02-08T15:24:29.784Z,4.22
2023-02-08T15:26:57.961Z,4.50
2023-02-08T15:29:43.807Z,3.72
2023-02-08T15:32:16.415Z,4.00
2023-02-08T15:34:47.062Z,4.78
2023-02-08T15:37:17.364Z,3.65
2023-02-08T15:39:45.828Z,4.40
2023-02-08T15:42:25.089Z,4.35
2023-02-08T15:44:52.930Z,3.88
2023-02-08T15:47:32.416Z,4.32
2023-02-08T15:50:01.874Z,4.35
2023-02-08T15:52:36.615Z,4.18
2023-02-08T15:55:07.999Z,4.25
2023-02-08T15:57:44.255Z,4.80
2023-02-08T16:00:19.888Z,4.60
2023-02-08T16:02:59.221Z,4.55
2023-02-08T16:05:29.806Z,4.28
2023-02-08T16:07:57.741Z,4.10
2023-02-08T16:10:48.944Z,3.55
2023-02-08T16:13:34.776Z,4.28
2023-02-08T16:16:23.790Z,4.00
2023-02-08T16:19:03.481Z,3.78
2023-02-08T16:21:42.086Z,4.20
2023-02-08T16:24:32.859Z,4.25
2023-02-08T16:27:09.838Z,4.20
2023-02-08T16:29:39.710Z,4.13
2023-02-08T16:32:30.810Z,4.18
2023-02-08T16:35:12.125Z,4.30
2023-02-08T16:37:39.733Z,4.57
2023-02-08T16:40:25.166Z,3.90
2023-02-08T16:42:52.284Z,4.10
2023-02-08T16:45:23.037Z,4.28
2023-02-08T16:48:17.422Z,4.97
2023-02-08T16:50:46.171Z,4.93
2023-02-08T16:53:13.536Z,4.47
2023-02-08T16:55:43.782Z,5.30
2023-02-08T16:58:15.383Z,4.60
2023-02-08T17:00:43.535Z,4.85
2023-02-08T17:03:15.122Z,4.57
2023-02-08T17:05:47.494Z,5.15
2023-02-08T17:08:21.437Z,5.13
2023-02-08T17:10:52.758Z,5.03
2023-02-08T17:13:23.183Z,5.57
2023-02-08T17:15:52.449Z,12.35
2023-02-08T17:18:21.183Z,6.60
2023-02-08T17:20:57.953Z,7.50
2023-02-08T17:23:25.908Z,7.68
2023-02-08T17:25:53.271Z,7.47
2023-02-08T17:28:22.550Z,7.20
2023-02-08T17:30:51.479Z,7.55
2023-02-08T17:33:19.254Z,7.70
2023-02-08T17:35:53.219Z,8.68
2023-02-08T17:38:20.908Z,12.98
2023-02-08T17:40:49.240Z,16.60
2023-02-08T17:43:16.738Z,21.35
2023-02-08T17:45:44.713Z,16.40
2023-02-08T17:48:13.562Z,13.82
2023-02-08T17:50:43.372Z,14.65
2023-02-08T17:53:10.494Z,13.05
2023-02-08T17:55:37.773Z,11.27
2023-02-08T17:58:04.822Z,9.75
2023-02-08T18:00:34.795Z,9.35
2023-02-08T18:03:03.397Z,9.20
2023-02-08T18:05:31.156Z,7.93
2023-02-08T18:07:58.222Z,8.98
2023-02-08T18:10:26.117Z,8.32
2023-02-08T18:12:53.232Z,8.35
2023-02-08T18:15:24.814Z,8.50
2023-02-08T18:17:51.813Z,8.18
2023-02-08T18:20:18.830Z,7.97
2023-02-08T18:22:46.518Z,7.68
2023-02-08T18:25:14.825Z,8.15
2023-02-08T18:27:42.380Z,16.33
2023-02-08T18:30:11.125Z,10.80
2023-02-08T18:32:38.349Z,8.23
2023-02-08T18:35:07.482Z,6.50
2023-02-08T18:37:36.055Z,7.47
2023-02-08T18:40:03.949Z,6.45
2023-02-08T18:42:32.056Z,8.73
2023-02-08T18:44:59.759Z,8.65
2023-02-08T18:47:27.171Z,8.25
2023-02-08T18:49:55.541Z,10.77
2023-02-08T18:52:23.890Z,10.60
2023-02-08T18:54:51.365Z,14.25
2023-02-08T18:57:18.486Z,13.85
2023-02-08T18:59:45.570Z,12.30
2023-02-08T19:02:18.690Z,11.25
2023-02-08T19:04:45.708Z,13.25
2023-02-08T19:07:13.054Z,10.30
2023-02-08T19:09:41.206Z,10.45
2023-02-08T19:12:09.256Z,11.30
2023-02-08T19:14:36.482Z,11.00
2023-02-08T19:17:03.777Z,10.20
2023-02-08T19:19:30.738Z,9.60
2023-02-08T19:21:57.725Z,12.15
2023-02-08T19:24:27.827Z,10.98
2023-02-08T19:26:54.741Z,9.32
2023-02-08T19:29:24.562Z,8.95
2023-02-08T19:31:51.604Z,8.30
2023-02-08T19:34:19.377Z,8.05
2023-02-08T19:36:52.146Z,7.60
2023-02-08T19:39:24.537Z,8.05
2023-02-08T19:41:52.967Z,7.85
2023-02-08T19:44:20.803Z,8.70
2023-02-08T19:46:50.710Z,8.57
2023-02-08T19:49:18.487Z,10.77
2023-02-08T19:51:45.581Z,11.57
2023-02-08T19:54:17.076Z,12.02
2023-02-08T19:56:44.814Z,10.30
2023-02-08T19:59:28.774Z,11.18
2023-02-08T20:01:56.757Z,10.43
2023-02-08T20:04:25.202Z,10.60
2023-02-08T20:06:53.774Z,12.13
2023-02-08T20:09:21.440Z,12.80
2023-02-08T20:11:56.935Z,10.93
2023-02-08T20:14:27.017Z,12.02
2023-02-08T20:16:54.303Z,11.73
2023-02-08T20:19:21.642Z,14.27
2023-02-08T20:21:49.426Z,11.23
2023-02-08T20:24:16.927Z,10.13
2023-02-08T20:26:46.542Z,11.25
2023-02-08T20:29:16.391Z,11.55
2023-02-08T20:31:49.546Z,11.05
2023-02-08T20:34:19.095Z,11.27
2023-02-08T20:37:05.726Z,10.43
2023-02-08T20:39:34.972Z,11.68
2023-02-08T20:42:02.045Z,11.48
2023-02-08T20:44:29.294Z,13.50
2023-02-08T20:46:56.462Z,12.75
2023-02-08T20:49:26.719Z,12.82
2023-02-08T20:51:55.066Z,11.65
2023-02-08T20:54:26.146Z,12.52
2023-02-08T20:56:54.344Z,11.60
2023-02-08T20:59:22.615Z,11.32
2023-02-08T21:01:50.214Z,10.55
2023-02-08T21:04:18.299Z,11.27
2023-02-08T21:06:46.332Z,11.70
2023-02-08T21:09:16.376Z,12.55
2023-02-08T21:11:49.377Z,13.40
2023-02-08T21:14:21.395Z,11.77
2023-02-08T21:16:51.464Z,10.85
2023-02-08T21:19:20.968Z,12.43
2023-02-08T21:21:58.121Z,11.55
2023-02-08T21:24:27.703Z,11.63
2023-02-08T21:26:56.363Z,11.13
2023-02-08T21:29:23.912Z,11.90
2023-02-08T21:31:54.639Z,11.85
2023-02-08T21:34:22.189Z,10.43
2023-02-08T21:36:55.596Z,9.32
2023-02-08T21:39:25.944Z,8.50
2023-02-08T21:41:55.868Z,7.75
2023-02-08T21:44:23.512Z,7.97
2023-02-08T21:46:51.377Z,6.45
2023-02-08T21:49:36.723Z,6.63
2023-02-08T21:52:22.317Z,5.38
2023-02-08T21:54:54.292Z,5.18
2023-02-08T21:57:28.243Z,4.90
2023-02-08T21:59:58.698Z,4.40
2023-02-08T22:02:30.149Z,3.05
2023-02-08T22:05:26.305Z,3.47
2023-02-08T22:07:55.486Z,3.00
2023-02-08T22:10:25.312Z,3.20
2023-02-08T22:12:55.242Z,3.28
2023-02-08T22:15:25.129Z,3.13
2023-02-08T22:17:59.647Z,3.33
2023-02-08T22:20:29.759Z,3.35
2023-02-08T22:23:06.497Z,4.10
2023-02-08T22:25:35.981Z,3.28
2023-02-08T22:28:04.722Z,3.03
2023-02-08T22:30:37.290Z,3.63
2023-02-08T22:33:05.523Z,3.03
2023-02-08T22:35:33.285Z,3.75
2023-02-08T22:38:00.290Z,3.75
2023-02-08T22:40:27.340Z,4.18
2023-02-08T22:42:54.695Z,3.95
2023-02-08T22:45:21.676Z,3.53
2023-02-08T22:47:49.085Z,3.50
2023-02-08T22:50:16.389Z,3.20
2023-02-08T22:52:43.692Z,3.63
2023-02-08T22:55:10.684Z,3.53
2023-02-08T22:58:29.401Z,4.75
2023-02-08T23:00:59.433Z,4.30
2023-02-08T23:03:26.616Z,3.78
2023-02-08T23:05:53.827Z,4.50
2023-02-08T23:08:22.277Z,4.65
2023-02-08T23:10:49.665Z,4.70
2023-02-08T23:13:16.700Z,4.43
2023-02-08T23:15:45.167Z,4.18
2023-02-08T23:18:12.670Z,4.43
2023-02-08T23:20:41.013Z,4.30
2023-02-08T23:23:08.682Z,4.60
2023-02-08T23:25:39.846Z,4.15
2023-02-08T23:28:08.802Z,3.90
2023-02-08T23:30:39.173Z,4.05
2023-02-08T23:33:07.012Z,4.43
2023-02-08T23:35:34.418Z,4.55
2023-02-08T23:38:01.631Z,4.10
2023-02-08T23:40:28.647Z,5.20
2023-02-08T23:42:55.523Z,4.32
2023-02-08T23:45:22.939Z,4.88
2023-02-08T23:47:49.944Z,4.53
2023-02-08T23:50:16.905Z,4.72
2023-02-08T23:52:43.857Z,3.88
2023-02-08T23:55:10.830Z,4.70
2023-02-08T23:57:42.181Z,4.10
